createdAt,value
2018-03-29T00:00:16.291Z,0.00
2018-03-29T00:01:16.254Z,0.00
2018-03-29T00:02:16.222Z,0.00
2018-03-29T00:03:16.220Z,0.00
2018-03-29T00:04:16.259Z,0.00
2018-03-29T00:05:16.173Z,0.00
2018-03-29T00:06:16.179Z,0.00
2018-03-29T00:07:16.139Z,0.00
2018-03-29T00:08:16.119Z,0.00
2018-03-29T00:09:16.118Z,0.00
2018-03-29T00:10:16.057Z,0.00
2018-03-29T00:11:16.021Z,0.00
2018-03-29T00:12:16.010Z,0.00
2018-03-29T00:13:15.995Z,0.00
2018-03-29T00:14:16.013Z,0.00
2018-03-29T00:15:15.949Z,0.00
2018-03-29T00:16:15.909Z,0.00
2018-03-29T00:17:15.910Z,0.00
2018-03-29T00:18:15.865Z,0.00
2018-03-29T00:19:15.887Z,0.00
2018-03-29T00:20:15.840Z,0.00
2018-03-29T00:21:15.803Z,0.00
2018-03-29T00:22:15.795Z,0.00
2018-03-29T00:23:15.749Z,0.00
2018-03-29T00:24:15.737Z,0.00
2018-03-29T00:25:15.717Z,0.00
2018-03-29T00:26:15.707Z,0.00
2018-03-29T00:27:15.677Z,0.00
2018-03-29T00:28:15.652Z,0.00
2018-03-29T00:29:15.631Z,0.00
2018-03-29T00:30:15.598Z,0.00
2018-03-29T00:31:15.584Z,0.00
2018-03-29T00:32:15.558Z,0.00
2018-03-29T00:33:15.571Z,0.00
2018-03-29T00:34:15.506Z,0.00
2018-03-29T00:35:15.487Z,0.00
2018-03-29T00:36:15.511Z,0.00
2018-03-29T00:37:15.473Z,0.00
2018-03-29T00:38:15.474Z,0.00
2018-03-29T00:39:15.425Z,0.00
2018-03-29T00:40:15.419Z,0.00
2018-03-29T00:41:15.384Z,0.00
2018-03-29T00:42:15.357Z,0.00
2018-03-29T00:43:15.359Z,0.00
2018-03-29T00:44:15.278Z,0.00
2018-03-29T00:45:15.304Z,0.00
2018-03-29T00:46:15.272Z,0.00
2018-03-29T00:47:15.275Z,0.00
2018-03-29T00:48:15.248Z,0.00
2018-03-29T00:49:15.175Z,0.00
2018-03-29T00:50:15.215Z,0.00
2018-03-29T00:51:15.142Z,0.00
2018-03-29T00:52:15.129Z,0.00
2018-03-29T00:53:15.114Z,0.00
2018-03-29T00:54:15.062Z,0.00
2018-03-29T00:55:15.064Z,0.00
2018-03-29T00:56:15.012Z,0.00
2018-03-29T00:57:15.025Z,0.00
2018-03-29T00:58:14.976Z,0.00
2018-03-29T00:59:14.973Z,0.00
2018-03-29T01:00:14.943Z,0.00
2018-03-29T01:01:14.902Z,0.00
2018-03-29T01:02:14.915Z,0.00
2018-03-29T01:03:14.859Z,0.00
2018-03-29T01:04:14.870Z,0.00
2018-03-29T01:05:14.845Z,0.00
2018-03-29T01:06:14.895Z,0.00
2018-03-29T01:07:14.764Z,0.00
2018-03-29T01:08:14.766Z,0.00
2018-03-29T01:09:14.731Z,0.00
2018-03-29T01:10:14.723Z,0.00
2018-03-29T01:11:14.747Z,0.00
2018-03-29T01:12:14.703Z,0.00
2018-03-29T01:13:14.659Z,0.00
2018-03-29T01:14:14.610Z,0.00
2018-03-29T01:15:14.598Z,0.00
2018-03-29T01:16:14.602Z,0.00
2018-03-29T01:17:14.551Z,0.00
2018-03-29T01:18:14.544Z,0.00
2018-03-29T01:19:14.543Z,0.00
2018-03-29T01:20:15.341Z,0.00
2018-03-29T01:21:14.475Z,0.00
2018-03-29T01:22:14.434Z,0.00
2018-03-29T01:23:14.488Z,0.00
2018-03-29T01:24:14.395Z,0.00
2018-03-29T01:25:14.375Z,0.00
2018-03-29T01:26:14.342Z,0.00
2018-03-29T01:27:14.358Z,0.00
2018-03-29T01:28:14.319Z,0.00
2018-03-29T01:29:14.350Z,0.00
2018-03-29T01:30:14.297Z,0.00
2018-03-29T01:31:14.832Z,0.00
2018-03-29T01:32:14.237Z,0.00
2018-03-29T01:33:14.185Z,0.00
2018-03-29T01:34:14.161Z,0.00
2018-03-29T01:35:14.147Z,0.00
2018-03-29T01:36:14.163Z,0.00
2018-03-29T01:37:14.097Z,0.00
2018-03-29T01:38:14.080Z,0.00
2018-03-29T01:39:14.073Z,0.00
2018-03-29T01:40:14.032Z,0.00
2018-03-29T01:41:14.047Z,0.00
2018-03-29T01:42:13.977Z,0.00
2018-03-29T01:43:13.962Z,0.00
2018-03-29T01:44:13.943Z,0.00
2018-03-29T01:45:13.921Z,0.00
2018-03-29T01:46:13.891Z,0.00
2018-03-29T01:47:13.867Z,0.00
2018-03-29T01:48:13.869Z,0.00
2018-03-29T01:49:13.881Z,0.00
2018-03-29T01:50:13.820Z,0.00
2018-03-29T01:51:13.825Z,0.00
2018-03-29T01:52:13.797Z,0.00
2018-03-29T01:53:13.734Z,0.00
2018-03-29T01:54:13.719Z,0.00
2018-03-29T01:55:13.693Z,0.00
2018-03-29T01:56:13.674Z,0.00
2018-03-29T01:57:13.668Z,0.00
2018-03-29T01:58:13.615Z,0.00
2018-03-29T01:59:13.614Z,0.00
2018-03-29T02:00:13.591Z,0.00
2018-03-29T02:01:13.567Z,0.00
2018-03-29T02:02:13.535Z,0.00
2018-03-29T02:03:13.586Z,0.00
2018-03-29T02:04:13.499Z,0.00
2018-03-29T02:05:13.476Z,0.00
2018-03-29T02:06:13.448Z,0.00
2018-03-29T02:07:13.433Z,0.00
2018-03-29T02:08:13.408Z,0.00
2018-03-29T02:09:13.370Z,0.00
2018-03-29T02:10:13.364Z,0.00
2018-03-29T02:11:13.327Z,0.00
2018-03-29T02:12:13.345Z,0.00
2018-03-29T02:13:13.310Z,0.00
2018-03-29T02:14:13.270Z,0.00
2018-03-29T02:15:13.263Z,0.00
2018-03-29T02:16:13.215Z,0.00
2018-03-29T02:17:13.209Z,0.00
2018-03-29T02:18:13.194Z,0.00
2018-03-29T02:19:13.181Z,0.00
2018-03-29T02:20:13.122Z,0.00
2018-03-29T02:21:13.156Z,0.00
2018-03-29T02:22:13.070Z,0.00
2018-03-29T02:23:13.049Z,0.00
2018-03-29T02:24:13.084Z,0.00
2018-03-29T02:25:13.031Z,0.00
2018-03-29T02:26:13.005Z,0.00
2018-03-29T02:27:12.962Z,0.00
2018-03-29T02:28:12.957Z,0.00
2018-03-29T02:29:12.972Z,0.00
2018-03-29T02:30:12.894Z,0.00
2018-03-29T02:31:12.868Z,0.00
2018-03-29T02:32:12.861Z,0.00
2018-03-29T02:33:12.833Z,0.00
2018-03-29T02:34:12.800Z,0.00
2018-03-29T02:35:12.808Z,0.00
2018-03-29T02:36:12.813Z,0.00
2018-03-29T02:37:12.763Z,0.00
2018-03-29T02:38:12.769Z,0.00
2018-03-29T02:39:12.750Z,0.00
2018-03-29T02:40:12.700Z,0.00
2018-03-29T02:41:12.735Z,0.00
2018-03-29T02:42:12.673Z,0.00
2018-03-29T02:43:12.623Z,0.00
2018-03-29T02:44:12.613Z,0.00
2018-03-29T02:45:12.558Z,0.00
2018-03-29T02:46:12.556Z,0.00
2018-03-29T02:47:12.535Z,0.00
2018-03-29T02:48:12.501Z,0.00
2018-03-29T02:49:12.476Z,0.00
2018-03-29T02:50:12.498Z,0.00
2018-03-29T02:51:12.516Z,0.00
2018-03-29T02:52:12.446Z,0.00
2018-03-29T02:53:12.412Z,0.00
2018-03-29T02:54:12.422Z,0.00
2018-03-29T02:55:12.406Z,0.00
2018-03-29T02:56:12.387Z,0.00
2018-03-29T02:57:12.308Z,0.00
2018-03-29T02:58:12.321Z,0.00
2018-03-29T02:59:12.262Z,0.00
2018-03-29T03:00:12.265Z,0.00
2018-03-29T03:01:12.218Z,0.00
2018-03-29T03:02:12.181Z,0.00
2018-03-29T03:03:12.195Z,0.00
2018-03-29T03:04:12.138Z,0.00
2018-03-29T03:05:12.151Z,0.00
2018-03-29T03:06:12.088Z,0.00
2018-03-29T03:07:12.099Z,0.00
2018-03-29T03:08:12.047Z,0.00
2018-03-29T03:09:12.040Z,0.00
2018-03-29T03:10:11.988Z,0.00
2018-03-29T03:11:11.981Z,0.00
2018-03-29T03:12:11.964Z,0.00
2018-03-29T03:13:11.960Z,0.00
2018-03-29T03:14:11.931Z,0.00
2018-03-29T03:15:11.900Z,0.00
2018-03-29T03:16:11.866Z,0.00
2018-03-29T03:17:11.840Z,0.00
2018-03-29T03:18:11.856Z,0.00
2018-03-29T03:19:11.810Z,0.00
2018-03-29T03:20:11.783Z,0.00
2018-03-29T03:21:12.361Z,0.00
2018-03-29T03:22:11.735Z,0.00
2018-03-29T03:23:11.765Z,0.00
2018-03-29T03:24:11.677Z,0.00
2018-03-29T03:25:11.662Z,0.00
2018-03-29T03:26:11.676Z,0.00
2018-03-29T03:27:11.609Z,0.00
2018-03-29T03:28:11.598Z,0.00
2018-03-29T03:29:11.597Z,0.00
2018-03-29T03:30:11.581Z,0.00
2018-03-29T03:31:11.525Z,0.00
2018-03-29T03:32:11.551Z,0.00
2018-03-29T03:33:11.480Z,0.00
2018-03-29T03:34:11.469Z,0.00
2018-03-29T03:35:11.419Z,0.00
2018-03-29T03:36:11.451Z,0.00
2018-03-29T03:37:11.387Z,0.00
2018-03-29T03:38:11.378Z,0.00
2018-03-29T03:39:11.332Z,0.00
2018-03-29T03:40:11.384Z,0.00
2018-03-29T03:41:11.370Z,0.00
2018-03-29T03:42:11.264Z,0.00
2018-03-29T03:43:11.258Z,0.00
2018-03-29T03:44:11.210Z,0.00
2018-03-29T03:45:11.208Z,0.00
2018-03-29T03:46:11.211Z,0.00
2018-03-29T03:47:11.153Z,0.00
2018-03-29T03:48:11.127Z,0.00
2018-03-29T03:49:14.039Z,0.00
2018-03-29T03:50:11.127Z,0.00
2018-03-29T03:51:11.898Z,0.00
2018-03-29T03:52:11.098Z,0.00
2018-03-29T03:53:11.046Z,0.00
2018-03-29T03:54:11.043Z,0.00
2018-03-29T03:55:10.997Z,0.00
2018-03-29T03:56:10.983Z,0.00
2018-03-29T03:57:10.964Z,0.00
2018-03-29T03:58:10.893Z,0.00
2018-03-29T03:59:11.052Z,0.00
2018-03-29T04:00:10.884Z,0.00
2018-03-29T04:01:10.875Z,0.00
2018-03-29T04:02:10.884Z,0.00
2018-03-29T04:03:10.811Z,0.00
2018-03-29T04:04:10.797Z,0.00
2018-03-29T04:05:10.770Z,0.00
2018-03-29T04:06:10.803Z,0.00
2018-03-29T04:07:10.728Z,0.00
2018-03-29T04:08:10.672Z,0.00
2018-03-29T04:09:10.739Z,0.00
2018-03-29T04:10:10.615Z,0.00
2018-03-29T04:11:10.654Z,0.00
2018-03-29T04:12:11.389Z,0.00
2018-03-29T04:13:10.560Z,0.00
2018-03-29T04:14:10.567Z,0.00
2018-03-29T04:15:10.565Z,0.00
2018-03-29T04:16:10.482Z,0.00
2018-03-29T04:17:10.497Z,0.00
2018-03-29T04:18:10.518Z,0.00
2018-03-29T04:19:10.397Z,0.00
2018-03-29T04:20:10.384Z,0.00
2018-03-29T04:21:10.382Z,0.00
2018-03-29T04:22:10.334Z,0.00
2018-03-29T04:23:10.347Z,0.00
2018-03-29T04:24:10.339Z,0.00
2018-03-29T04:25:10.276Z,0.00
2018-03-29T04:26:10.259Z,0.00
2018-03-29T04:27:10.245Z,0.00
2018-03-29T04:28:10.221Z,0.00
2018-03-29T04:29:10.171Z,0.00
2018-03-29T04:30:10.198Z,0.00
2018-03-29T04:31:10.171Z,0.00
2018-03-29T04:32:10.104Z,0.00
2018-03-29T04:33:10.114Z,0.00
2018-03-29T04:34:10.086Z,0.00
2018-03-29T04:35:10.053Z,0.00
2018-03-29T04:36:10.057Z,4.00
2018-03-29T04:37:10.043Z,0.00
2018-03-29T04:38:09.990Z,4.00
2018-03-29T04:39:10.007Z,4.00
2018-03-29T04:40:09.959Z,4.00
2018-03-29T04:41:09.906Z,4.00
2018-03-29T04:42:09.903Z,4.00
2018-03-29T04:43:09.890Z,8.00
2018-03-29T04:44:09.840Z,8.00
2018-03-29T04:45:09.810Z,12.00
2018-03-29T04:46:09.840Z,12.00
2018-03-29T04:47:09.760Z,16.00
2018-03-29T04:48:09.746Z,16.00
2018-03-29T04:49:09.790Z,20.00
2018-03-29T04:50:09.795Z,28.00
2018-03-29T04:51:09.676Z,32.00
2018-03-29T04:52:09.659Z,36.00
2018-03-29T04:53:09.622Z,40.00
2018-03-29T04:54:09.626Z,48.00
2018-03-29T04:55:10.314Z,52.00
2018-03-29T04:56:09.557Z,64.00
2018-03-29T04:57:09.554Z,72.00
2018-03-29T04:58:09.518Z,80.00
2018-03-29T04:59:09.488Z,92.00
2018-03-29T05:00:09.460Z,104.00
2018-03-29T05:01:09.446Z,116.00
2018-03-29T05:02:09.450Z,128.00
2018-03-29T05:03:09.431Z,144.00
2018-03-29T05:04:09.396Z,160.00
2018-03-29T05:05:09.381Z,176.00
2018-03-29T05:06:09.321Z,188.00
2018-03-29T05:07:09.316Z,204.00
2018-03-29T05:08:09.302Z,212.00
2018-03-29T05:09:09.258Z,236.00
2018-03-29T05:10:09.234Z,256.00
2018-03-29T05:11:09.226Z,276.00
2018-03-29T05:12:09.225Z,296.00
2018-03-29T05:13:09.197Z,316.00
2018-03-29T05:14:09.170Z,320.00
2018-03-29T05:15:09.134Z,320.00
2018-03-29T05:16:09.126Z,336.00
2018-03-29T05:17:09.112Z,364.00
2018-03-29T05:18:09.048Z,404.00
2018-03-29T05:19:09.020Z,416.00
2018-03-29T05:20:09.003Z,448.00
2018-03-29T05:21:08.978Z,492.00
2018-03-29T05:22:08.974Z,532.00
2018-03-29T05:23:08.961Z,576.00
2018-03-29T05:24:08.962Z,612.00
2018-03-29T05:25:08.893Z,640.00
2018-03-29T05:26:08.901Z,672.00
2018-03-29T05:27:08.860Z,712.00
2018-03-29T05:28:08.831Z,724.00
2018-03-29T05:29:08.815Z,740.00
2018-03-29T05:30:08.783Z,776.00
2018-03-29T05:31:08.804Z,860.00
2018-03-29T05:32:08.752Z,960.00
2018-03-29T05:33:08.742Z,1072.00
2018-03-29T05:34:08.721Z,1156.00
2018-03-29T05:35:08.685Z,1144.00
2018-03-29T05:36:08.645Z,1076.00
2018-03-29T05:37:08.614Z,1136.00
2018-03-29T05:38:08.621Z,1208.00
2018-03-29T05:39:08.569Z,1196.00
2018-03-29T05:40:08.613Z,1188.00
2018-03-29T05:41:08.566Z,1108.00
2018-03-29T05:42:08.504Z,1100.00
2018-03-29T05:43:08.458Z,1072.00
2018-03-29T05:44:08.441Z,1060.00
2018-03-29T05:45:08.460Z,1076.00
2018-03-29T05:46:08.447Z,1072.00
2018-03-29T05:47:08.406Z,1048.00
2018-03-29T05:48:08.388Z,1116.00
2018-03-29T05:49:08.355Z,1268.00
2018-03-29T05:50:08.308Z,1468.00
2018-03-29T05:51:08.268Z,1556.00
2018-03-29T05:52:08.299Z,1388.00
2018-03-29T05:53:08.258Z,1388.00
2018-03-29T05:54:08.207Z,1436.00
2018-03-29T05:55:08.223Z,1556.00
2018-03-29T05:56:08.197Z,1716.00
2018-03-29T05:57:08.170Z,1628.00
2018-03-29T05:58:08.166Z,1628.00
2018-03-29T05:59:08.131Z,1676.00
2018-03-29T06:00:08.132Z,1876.00
2018-03-29T06:01:08.096Z,1760.00
2018-03-29T06:02:08.058Z,1608.00
2018-03-29T06:03:08.064Z,1788.00
2018-03-29T06:04:08.005Z,1884.00
2018-03-29T06:05:07.942Z,1816.00
2018-03-29T06:06:07.986Z,1804.00
2018-03-29T06:07:07.933Z,1824.00
2018-03-29T06:08:07.953Z,1732.00
2018-03-29T06:09:07.882Z,1532.00
2018-03-29T06:10:07.844Z,1648.00
2018-03-29T06:11:07.850Z,1716.00
2018-03-29T06:12:07.814Z,1940.00
2018-03-29T06:13:07.801Z,2356.00
2018-03-29T06:14:07.782Z,2732.00
2018-03-29T06:15:07.777Z,3060.00
2018-03-29T06:16:07.769Z,3000.00
2018-03-29T06:17:07.696Z,3012.00
2018-03-29T06:18:07.702Z,3092.00
2018-03-29T06:19:07.653Z,3304.00
2018-03-29T06:20:07.652Z,3296.00
2018-03-29T06:21:07.671Z,3000.00
2018-03-29T06:22:07.626Z,2636.00
2018-03-29T06:23:07.659Z,2276.00
2018-03-29T06:24:07.633Z,2140.00
2018-03-29T06:25:07.556Z,2144.00
2018-03-29T06:26:07.546Z,2116.00
2018-03-29T06:27:07.526Z,2376.00
2018-03-29T06:28:07.463Z,2868.00
2018-03-29T06:29:07.448Z,2872.00
2018-03-29T06:30:07.484Z,2832.00
2018-03-29T06:31:07.434Z,2980.00
2018-03-29T06:32:07.341Z,2780.00
2018-03-29T06:33:07.342Z,2596.00
2018-03-29T06:34:07.337Z,2448.00
2018-03-29T06:35:07.303Z,2596.00
2018-03-29T06:36:07.318Z,3100.00
2018-03-29T06:37:07.267Z,3368.00
2018-03-29T06:38:07.244Z,3416.00
2018-03-29T06:39:07.262Z,2988.00
2018-03-29T06:40:07.194Z,2840.00
2018-03-29T06:41:07.191Z,2832.00
2018-03-29T06:42:07.162Z,2724.00
2018-03-29T06:43:07.158Z,2620.00
2018-03-29T06:44:07.150Z,2628.00
2018-03-29T06:45:07.090Z,2704.00
2018-03-29T06:46:07.033Z,2740.00
2018-03-29T06:47:07.025Z,2824.00
2018-03-29T06:48:07.039Z,2988.00
2018-03-29T06:49:07.017Z,3056.00
2018-03-29T06:50:06.954Z,3176.00
2018-03-29T06:51:06.987Z,3180.00
2018-03-29T06:52:06.954Z,3136.00
2018-03-29T06:53:06.913Z,3144.00
2018-03-29T06:54:06.902Z,3232.00
2018-03-29T06:55:06.906Z,3340.00
2018-03-29T06:56:06.858Z,3520.00
2018-03-29T06:57:06.855Z,3784.00
2018-03-29T06:58:06.788Z,3872.00
2018-03-29T06:59:06.791Z,4296.00
2018-03-29T07:00:06.759Z,4752.00
2018-03-29T07:01:06.813Z,5104.00
2018-03-29T07:02:06.744Z,5724.00
2018-03-29T07:03:06.720Z,6376.00
2018-03-29T07:04:06.677Z,6084.00
2018-03-29T07:05:06.604Z,5812.00
2018-03-29T07:06:06.712Z,5372.00
2018-03-29T07:07:06.622Z,5164.00
2018-03-29T07:08:06.561Z,5104.00
2018-03-29T07:09:06.546Z,5180.00
2018-03-29T07:10:06.530Z,5832.00
2018-03-29T07:11:06.588Z,6364.00
2018-03-29T07:12:06.496Z,6952.00
2018-03-29T07:13:06.478Z,8424.00
2018-03-29T07:14:06.438Z,10036.00
2018-03-29T07:15:06.400Z,10540.00
2018-03-29T07:16:06.452Z,10372.00
2018-03-29T07:17:06.391Z,9296.00
2018-03-29T07:18:06.378Z,7312.00
2018-03-29T07:19:06.318Z,6380.00
2018-03-29T07:20:06.315Z,6488.00
2018-03-29T07:21:06.284Z,6932.00
2018-03-29T07:22:06.353Z,7548.00
2018-03-29T07:23:06.264Z,8672.00
2018-03-29T07:24:06.236Z,9512.00
2018-03-29T07:25:06.224Z,9552.00
2018-03-29T07:26:06.141Z,10772.00
2018-03-29T07:27:06.157Z,12776.00
2018-03-29T07:28:06.174Z,12868.00
2018-03-29T07:29:06.102Z,13548.00
2018-03-29T07:30:06.082Z,13640.00
2018-03-29T07:31:06.103Z,14512.00
2018-03-29T07:32:06.060Z,14624.00
2018-03-29T07:33:06.088Z,14140.00
2018-03-29T07:34:06.025Z,23744.00
2018-03-29T07:35:06.002Z,13044.00
2018-03-29T07:36:05.960Z,13476.00
2018-03-29T07:37:05.962Z,13844.00
2018-03-29T07:38:05.922Z,12632.00
2018-03-29T07:39:05.885Z,13880.00
2018-03-29T07:40:05.879Z,13112.00
2018-03-29T07:41:05.893Z,12688.00
2018-03-29T07:42:05.900Z,12704.00
2018-03-29T07:43:05.918Z,12148.00
2018-03-29T07:44:05.801Z,13480.00
2018-03-29T07:45:05.809Z,12144.00
2018-03-29T07:46:05.785Z,12360.00
2018-03-29T07:47:05.787Z,11248.00
2018-03-29T07:48:05.728Z,11204.00
2018-03-29T07:49:05.742Z,11232.00
2018-03-29T07:50:05.687Z,11688.00
2018-03-29T07:51:05.634Z,12464.00
2018-03-29T07:52:05.687Z,13388.00
2018-03-29T07:53:05.596Z,15392.00
2018-03-29T07:54:05.593Z,18016.00
2018-03-29T07:55:05.568Z,18336.00
2018-03-29T07:56:05.561Z,18720.00
2018-03-29T07:57:05.539Z,18112.00
2018-03-29T07:58:05.487Z,20768.00
2018-03-29T07:59:05.498Z,13864.00
2018-03-29T08:00:05.482Z,12928.00
2018-03-29T08:01:05.506Z,13280.00
2018-03-29T08:02:05.470Z,20672.00
2018-03-29T08:03:05.466Z,44544.00
2018-03-29T08:04:05.409Z,17408.00
2018-03-29T08:05:05.431Z,47584.00
2018-03-29T08:06:05.356Z,46112.00
2018-03-29T08:07:05.349Z,39200.00
2018-03-29T08:08:05.304Z,49952.00
2018-03-29T08:09:05.297Z,54816.00
2018-03-29T08:10:05.296Z,56128.00
2018-03-29T08:11:05.303Z,48672.00
2018-03-29T08:12:05.264Z,57248.00
2018-03-29T08:13:05.199Z,57376.00
2018-03-29T08:14:05.243Z,45952.00
2018-03-29T08:15:05.255Z,47424.00
2018-03-29T08:16:05.161Z,18464.00
2018-03-29T08:17:05.160Z,14600.00
2018-03-29T08:18:05.104Z,14472.00
2018-03-29T08:19:05.113Z,16032.00
2018-03-29T08:20:05.189Z,16256.00
2018-03-29T08:21:05.074Z,15280.00
2018-03-29T08:22:05.078Z,14580.00
2018-03-29T08:23:05.086Z,14128.00
2018-03-29T08:24:05.023Z,14732.00
2018-03-29T08:25:05.023Z,14156.00
2018-03-29T08:26:05.031Z,13428.00
2018-03-29T08:27:05.015Z,13324.00
2018-03-29T08:28:04.980Z,12708.00
2018-03-29T08:29:04.944Z,11200.00
2018-03-29T08:30:04.916Z,10424.00
2018-03-29T08:31:04.935Z,9544.00
2018-03-29T08:32:04.875Z,9500.00
2018-03-29T08:33:05.002Z,9776.00
2018-03-29T08:34:04.840Z,10316.00
2018-03-29T08:35:04.842Z,10800.00
2018-03-29T08:36:04.857Z,11556.00
2018-03-29T08:37:04.800Z,11948.00
2018-03-29T08:38:04.810Z,12460.00
2018-03-29T08:39:04.796Z,12904.00
2018-03-29T08:40:04.749Z,12192.00
2018-03-29T08:41:04.724Z,11252.00
2018-03-29T08:42:04.798Z,10684.00
2018-03-29T08:43:04.726Z,10684.00
2018-03-29T08:44:04.632Z,11540.00
2018-03-29T08:45:04.745Z,11384.00
2018-03-29T08:46:04.714Z,12712.00
2018-03-29T08:47:04.608Z,13128.00
2018-03-29T08:48:04.628Z,14192.00
2018-03-29T08:49:04.576Z,14504.00
2018-03-29T08:50:04.553Z,13712.00
2018-03-29T08:51:04.546Z,11908.00
2018-03-29T08:52:04.553Z,10588.00
2018-03-29T08:53:04.474Z,10348.00
2018-03-29T08:54:04.491Z,10212.00
2018-03-29T08:55:04.486Z,10900.00
2018-03-29T08:56:04.451Z,11344.00
2018-03-29T08:57:04.484Z,11884.00
2018-03-29T08:58:04.494Z,11696.00
2018-03-29T08:59:04.423Z,11724.00
2018-03-29T09:00:04.375Z,11604.00
2018-03-29T09:01:04.393Z,11348.00
2018-03-29T09:02:04.314Z,10900.00
2018-03-29T09:03:04.313Z,11524.00
2018-03-29T09:04:04.291Z,12508.00
2018-03-29T09:05:04.239Z,12060.00
2018-03-29T09:06:04.232Z,11720.00
2018-03-29T09:07:04.195Z,11884.00
2018-03-29T09:08:04.209Z,11308.00
2018-03-29T09:09:04.226Z,10332.00
2018-03-29T09:10:04.219Z,9812.00
2018-03-29T09:11:04.143Z,9628.00
2018-03-29T09:12:04.120Z,10012.00
2018-03-29T09:13:04.146Z,10932.00
2018-03-29T09:14:04.090Z,10904.00
2018-03-29T09:15:04.044Z,10708.00
2018-03-29T09:16:04.066Z,10784.00
2018-03-29T09:17:04.033Z,11088.00
2018-03-29T09:18:03.995Z,11648.00
2018-03-29T09:19:04.044Z,12304.00
2018-03-29T09:20:03.960Z,12324.00
2018-03-29T09:21:03.956Z,12120.00
2018-03-29T09:22:03.946Z,12836.00
2018-03-29T09:23:03.891Z,13552.00
2018-03-29T09:24:03.904Z,13824.00
2018-03-29T09:25:03.885Z,16000.00
2018-03-29T09:26:03.856Z,17440.00
2018-03-29T09:27:03.859Z,18016.00
2018-03-29T09:28:03.807Z,18016.00
2018-03-29T09:29:03.828Z,16256.00
2018-03-29T09:30:03.763Z,15432.00
2018-03-29T09:31:03.774Z,14464.00
2018-03-29T09:32:03.772Z,13924.00
2018-03-29T09:33:03.730Z,14388.00
2018-03-29T09:34:03.678Z,18080.00
2018-03-29T09:35:03.688Z,19744.00
2018-03-29T09:36:03.700Z,22048.00
2018-03-29T09:37:03.700Z,25472.00
2018-03-29T09:38:03.640Z,20896.00
2018-03-29T09:39:03.591Z,21504.00
2018-03-29T09:40:03.572Z,36608.00
2018-03-29T09:41:03.541Z,22208.00
2018-03-29T09:42:03.593Z,30528.00
2018-03-29T09:43:03.518Z,28256.00
2018-03-29T09:44:03.484Z,22112.00
2018-03-29T09:45:03.504Z,14952.00
2018-03-29T09:46:03.466Z,11772.00
2018-03-29T09:47:03.426Z,10496.00
2018-03-29T09:48:03.471Z,15344.00
2018-03-29T09:49:03.405Z,9400.00
2018-03-29T09:50:03.385Z,12032.00
2018-03-29T09:51:03.366Z,13588.00
2018-03-29T09:52:03.368Z,14108.00
2018-03-29T09:53:03.351Z,15716.00
2018-03-29T09:54:03.320Z,20672.00
2018-03-29T09:55:03.307Z,25120.00
2018-03-29T09:56:03.265Z,58816.00
2018-03-29T09:57:03.280Z,19744.00
2018-03-29T09:58:03.360Z,13744.00
2018-03-29T09:59:03.200Z,13340.00
2018-03-29T10:00:03.253Z,12292.00
2018-03-29T10:01:03.199Z,12084.00
2018-03-29T10:02:03.168Z,15664.00
2018-03-29T10:03:03.150Z,20448.00
2018-03-29T10:04:03.127Z,23264.00
2018-03-29T10:05:03.136Z,18272.00
2018-03-29T10:06:03.093Z,19040.00
2018-03-29T10:07:03.137Z,21184.00
2018-03-29T10:08:03.054Z,23392.00
2018-03-29T10:09:03.060Z,25792.00
2018-03-29T10:10:03.015Z,29312.00
2018-03-29T10:11:03.012Z,16896.00
2018-03-29T10:12:03.011Z,49120.00
2018-03-29T10:13:02.938Z,11488.00
2018-03-29T10:14:02.950Z,9632.00
2018-03-29T10:15:02.935Z,8888.00
2018-03-29T10:16:02.917Z,8236.00
2018-03-29T10:17:02.877Z,8964.00
2018-03-29T10:18:02.874Z,10096.00
2018-03-29T10:19:02.847Z,10712.00
2018-03-29T10:20:02.827Z,9276.00
2018-03-29T10:21:02.802Z,9244.00
2018-03-29T10:22:02.823Z,11036.00
2018-03-29T10:23:02.781Z,16672.00
2018-03-29T10:24:02.756Z,20000.00
2018-03-29T10:25:02.789Z,19904.00
2018-03-29T10:26:02.723Z,71360.00
2018-03-29T10:27:02.725Z,21536.00
2018-03-29T10:28:02.668Z,20928.00
2018-03-29T10:29:02.646Z,24544.00
2018-03-29T10:30:02.631Z,43808.00
2018-03-29T10:31:02.624Z,50336.00
2018-03-29T10:32:02.607Z,20064.00
2018-03-29T10:33:02.649Z,84064.00
2018-03-29T10:34:02.577Z,94848.00
2018-03-29T10:35:02.545Z,90016.00
2018-03-29T10:36:02.533Z,23616.00
2018-03-29T10:37:02.521Z,73984.00
2018-03-29T10:38:02.539Z,19136.00
2018-03-29T10:39:02.492Z,21440.00
2018-03-29T10:40:02.463Z,15420.00
2018-03-29T10:41:02.476Z,18816.00
2018-03-29T10:42:02.429Z,50080.00
2018-03-29T10:43:02.443Z,37088.00
2018-03-29T10:44:02.421Z,88512.00
2018-03-29T10:45:02.407Z,90368.00
2018-03-29T10:46:02.399Z,83616.00
2018-03-29T10:47:02.371Z,39904.00
2018-03-29T10:48:02.356Z,18464.00
2018-03-29T10:49:02.332Z,18464.00
2018-03-29T10:50:02.319Z,67968.00
2018-03-29T10:51:02.332Z,26240.00
2018-03-29T10:52:02.344Z,19008.00
2018-03-29T10:53:02.303Z,36672.00
2018-03-29T10:54:02.286Z,13540.00
2018-03-29T10:55:02.293Z,11068.00
2018-03-29T10:56:02.246Z,9552.00
2018-03-29T10:57:02.253Z,8372.00
2018-03-29T10:58:02.265Z,7824.00
2018-03-29T10:59:02.229Z,8256.00
2018-03-29T11:00:02.210Z,8256.00
2018-03-29T11:01:02.204Z,7980.00
2018-03-29T11:02:02.216Z,7248.00
2018-03-29T11:03:02.152Z,6404.00
2018-03-29T11:04:02.159Z,5676.00
2018-03-29T11:05:02.147Z,5416.00
2018-03-29T11:06:02.111Z,5824.00
2018-03-29T11:07:02.102Z,5860.00
2018-03-29T11:08:02.098Z,5528.00
2018-03-29T11:09:02.093Z,5556.00
2018-03-29T11:10:02.077Z,5860.00
2018-03-29T11:11:02.057Z,6384.00
2018-03-29T11:12:02.074Z,6852.00
2018-03-29T11:13:02.016Z,7212.00
2018-03-29T11:14:02.011Z,7272.00
2018-03-29T11:15:01.998Z,7464.00
2018-03-29T11:16:01.983Z,7160.00
2018-03-29T11:17:01.992Z,6836.00
2018-03-29T11:18:01.928Z,6420.00
2018-03-29T11:19:01.903Z,5956.00
2018-03-29T11:20:01.894Z,5480.00
2018-03-29T11:21:01.913Z,5288.00
2018-03-29T11:22:01.850Z,5496.00
2018-03-29T11:23:01.851Z,6072.00
2018-03-29T11:24:01.852Z,6752.00
2018-03-29T11:25:01.871Z,7212.00
2018-03-29T11:26:01.793Z,7228.00
2018-03-29T11:27:01.800Z,6868.00
2018-03-29T11:28:01.756Z,6424.00
2018-03-29T11:29:01.717Z,6956.00
2018-03-29T11:30:01.731Z,8020.00
2018-03-29T11:31:01.685Z,9240.00
2018-03-29T11:32:01.740Z,10356.00
2018-03-29T11:33:01.680Z,12192.00
2018-03-29T11:34:01.651Z,11784.00
2018-03-29T11:35:01.617Z,11816.00
2018-03-29T11:36:01.613Z,11336.00
2018-03-29T11:37:01.588Z,10972.00
2018-03-29T11:38:01.564Z,10884.00
2018-03-29T11:39:01.550Z,10864.00
2018-03-29T11:40:01.524Z,10536.00
2018-03-29T11:41:01.502Z,10144.00
2018-03-29T11:42:01.508Z,9884.00
2018-03-29T11:43:01.452Z,10116.00
2018-03-29T11:44:01.492Z,11420.00
2018-03-29T11:45:01.448Z,16448.00
2018-03-29T11:46:01.402Z,15528.00
2018-03-29T11:47:01.386Z,27808.00
2018-03-29T11:48:01.371Z,23104.00
2018-03-29T11:49:01.360Z,19264.00
2018-03-29T11:50:01.320Z,15936.00
2018-03-29T11:51:01.334Z,13068.00
2018-03-29T11:52:01.309Z,11476.00
2018-03-29T11:53:01.318Z,10764.00
2018-03-29T11:54:01.262Z,11832.00
2018-03-29T11:55:01.249Z,13132.00
2018-03-29T11:56:01.232Z,12248.00
2018-03-29T11:57:01.211Z,9492.00
2018-03-29T11:58:01.172Z,7472.00
2018-03-29T11:59:01.164Z,6192.00
2018-03-29T12:00:01.149Z,6032.00
2018-03-29T12:01:01.149Z,6656.00
2018-03-29T12:02:01.115Z,10240.00
2018-03-29T12:03:01.109Z,43584.00
2018-03-29T12:04:01.069Z,37440.00
2018-03-29T12:05:01.058Z,39808.00
2018-03-29T12:06:01.031Z,52480.00
2018-03-29T12:07:01.026Z,63072.00
2018-03-29T12:08:01.036Z,65568.00
2018-03-29T12:09:00.972Z,72768.00
2018-03-29T12:10:00.948Z,40256.00
2018-03-29T12:11:00.928Z,20928.00
2018-03-29T12:12:00.939Z,21888.00
2018-03-29T12:13:00.916Z,28032.00
2018-03-29T12:14:00.902Z,34112.00
2018-03-29T12:15:00.886Z,56416.00
2018-03-29T12:16:00.882Z,40384.00
2018-03-29T12:17:00.833Z,25088.00
2018-03-29T12:18:00.796Z,20512.00
2018-03-29T12:19:00.802Z,19680.00
2018-03-29T12:20:00.808Z,17024.00
2018-03-29T12:21:00.762Z,15788.00
2018-03-29T12:22:00.748Z,15244.00
2018-03-29T12:23:00.715Z,14960.00
2018-03-29T12:24:00.708Z,16608.00
2018-03-29T12:25:00.709Z,33024.00
2018-03-29T12:26:00.667Z,51104.00